sensor_id;sensor_type;location;lat;lon;timestamp;P1;durP1;ratioP1;P2;durP2;ratioP2
20084;SDS011;10202;48.474;9.138;2023-05-19T00:00:55;6.82;;;2.95;;
20084;SDS011;10202;48.474;9.138;2023-05-19T00:03:25;11.43;;;3.20;;
20084;SDS011;10202;48.474;9.138;2023-05-19T00:05:53;9.45;;;2.78;;
20084;SDS011;10202;48.474;9.138;2023-05-19T00:08:25;8.10;;;2.97;;
20084;SDS011;10202;48.474;9.138;2023-05-19T00:10:57;5.63;;;2.75;;
20084;SDS011;10202;48.474;9.138;2023-05-19T00:13:23;7.93;;;3.22;;
20084;SDS011;10202;48.474;9.138;2023-05-19T00:15:49;6.03;;;3.35;;
20084;SDS011;10202;48.474;9.138;2023-05-19T00:18:19;5.82;;;3.03;;
20084;SDS011;10202;48.474;9.138;2023-05-19T00:20:47;6.40;;;3.17;;
20084;SDS011;10202;48.474;9.138;2023-05-19T00:23:16;7.80;;;3.25;;
20084;SDS011;10202;48.474;9.138;2023-05-19T00:25:43;7.10;;;2.95;;
20084;SDS011;10202;48.474;9.138;2023-05-19T00:28:11;7.40;;;3.50;;
20084;SDS011;10202;48.474;9.138;2023-05-19T00:30:41;6.32;;;3.17;;
20084;SDS011;10202;48.474;9.138;2023-05-19T00:33:07;9.93;;;3.83;;
20084;SDS011;10202;48.474;9.138;2023-05-19T00:35:34;9.45;;;3.78;;
20084;SDS011;10202;48.474;9.138;2023-05-19T00:38:04;9.15;;;3.55;;
20084;SDS011;10202;48.474;9.138;2023-05-19T00:40:30;6.50;;;3.58;;
20084;SDS011;10202;48.474;9.138;2023-05-19T00:43:00;7.32;;;3.78;;
20084;SDS011;10202;48.474;9.138;2023-05-19T00:45:32;6.45;;;3.72;;
20084;SDS011;10202;48.474;9.138;2023-05-19T00:47:58;9.77;;;3.60;;
20084;SDS011;10202;48.474;9.138;2023-05-19T00:50:26;13.30;;;3.90;;
20084;SDS011;10202;48.474;9.138;2023-05-19T00:52:57;12.35;;;3.97;;
20084;SDS011;10202;48.474;9.138;2023-05-19T00:55:26;7.63;;;3.47;;
20084;SDS011;10202;48.474;9.138;2023-05-19T00:57:57;7.35;;;3.35;;
20084;SDS011;10202;48.474;9.138;2023-05-19T01:00:25;10.05;;;3.38;;
20084;SDS011;10202;48.474;9.138;2023-05-19T01:02:50;8.32;;;3.50;;
20084;SDS011;10202;48.474;9.138;2023-05-19T01:05:22;6.63;;;3.80;;
20084;SDS011;10202;48.474;9.138;2023-05-19T01:07:48;8.40;;;3.60;;
20084;SDS011;10202;48.474;9.138;2023-05-19T01:10:20;6.50;;;3.15;;
20084;SDS011;10202;48.474;9.138;2023-05-19T01:12:48;10.23;;;3.80;;
20084;SDS011;10202;48.474;9.138;2023-05-19T01:15:16;13.07;;;3.58;;
20084;SDS011;10202;48.474;9.138;2023-05-19T01:17:52;5.18;;;3.65;;
20084;SDS011;10202;48.474;9.138;2023-05-19T01:20:33;8.52;;;3.55;;
20084;SDS011;10202;48.474;9.138;2023-05-19T01:31:51;13.23;;;3.72;;
20084;SDS011;10202;48.474;9.138;2023-05-19T01:34:22;8.32;;;3.25;;
20084;SDS011;10202;48.474;9.138;2023-05-19T01:36:53;6.95;;;3.20;;
20084;SDS011;10202;48.474;9.138;2023-05-19T01:39:21;6.82;;;3.03;;
20084;SDS011;10202;48.474;9.138;2023-05-19T01:41:47;6.38;;;2.92;;
20084;SDS011;10202;48.474;9.138;2023-05-19T01:44:18;6.45;;;3.10;;
20084;SDS011;10202;48.474;9.138;2023-05-19T01:46:51;7.10;;;3.03;;
20084;SDS011;10202;48.474;9.138;2023-05-19T01:49:17;5.15;;;2.95;;
20084;SDS011;10202;48.474;9.138;2023-05-19T01:51:49;6.53;;;3.00;;
20084;SDS011;10202;48.474;9.138;2023-05-19T01:54:16;5.35;;;3.13;;
20084;SDS011;10202;48.474;9.138;2023-05-19T01:56:50;6.53;;;3.13;;
20084;SDS011;10202;48.474;9.138;2023-05-19T01:59:59;3.88;;;2.72;;
20084;SDS011;10202;48.474;9.138;2023-05-19T02:05:26;5.05;;;3.03;;
20084;SDS011;10202;48.474;9.138;2023-05-19T02:08:00;6.40;;;2.53;;
20084;SDS011;10202;48.474;9.138;2023-05-19T02:10:38;5.40;;;2.50;;
20084;SDS011;10202;48.474;9.138;2023-05-19T02:13:07;5.72;;;2.88;;
20084;SDS011;10202;48.474;9.138;2023-05-19T02:15:39;3.85;;;2.65;;
20084;SDS011;10202;48.474;9.138;2023-05-19T02:18:08;5.00;;;3.10;;
20084;SDS011;10202;48.474;9.138;2023-05-19T02:20:37;3.58;;;2.58;;
20084;SDS011;10202;48.474;9.138;2023-05-19T02:23:05;4.18;;;2.53;;
20084;SDS011;10202;48.474;9.138;2023-05-19T02:25:33;5.32;;;2.75;;
20084;SDS011;10202;48.474;9.138;2023-05-19T02:28:04;6.00;;;3.03;;
20084;SDS011;10202;48.474;9.138;2023-05-19T02:30:36;5.03;;;2.90;;
20084;SDS011;10202;48.474;9.138;2023-05-19T02:33:02;5.03;;;2.63;;
20084;SDS011;10202;48.474;9.138;2023-05-19T02:35:32;3.85;;;2.40;;
20084;SDS011;10202;48.474;9.138;2023-05-19T02:38:00;5.15;;;2.90;;
20084;SDS011;10202;48.474;9.138;2023-05-19T02:40:28;4.30;;;2.28;;
20084;SDS011;10202;48.474;9.138;2023-05-19T02:42:53;3.33;;;2.30;;
20084;SDS011;10202;48.474;9.138;2023-05-19T02:45:19;4.85;;;2.60;;
20084;SDS011;10202;48.474;9.138;2023-05-19T02:47:47;3.67;;;2.55;;
20084;SDS011;10202;48.474;9.138;2023-05-19T02:50:18;6.47;;;2.67;;
20084;SDS011;10202;48.474;9.138;2023-05-19T02:52:48;4.07;;;2.53;;
20084;SDS011;10202;48.474;9.138;2023-05-19T02:55:21;4.55;;;2.45;;
20084;SDS011;10202;48.474;9.138;2023-05-19T02:57:46;7.43;;;2.80;;
20084;SDS011;10202;48.474;9.138;2023-05-19T03:00:17;4.63;;;3.00;;
20084;SDS011;10202;48.474;9.138;2023-05-19T03:02:44;5.22;;;2.65;;
20084;SDS011;10202;48.474;9.138;2023-05-19T03:05:12;5.45;;;2.97;;
20084;SDS011;10202;48.474;9.138;2023-05-19T03:07:42;3.92;;;2.72;;
20084;SDS011;10202;48.474;9.138;2023-05-19T03:10:08;7.28;;;2.95;;
20084;SDS011;10202;48.474;9.138;2023-05-19T03:12:34;3.28;;;2.70;;
20084;SDS011;10202;48.474;9.138;2023-05-19T03:15:02;3.15;;;2.63;;
20084;SDS011;10202;48.474;9.138;2023-05-19T03:17:28;4.32;;;2.80;;
20084;SDS011;10202;48.474;9.138;2023-05-19T03:19:57;5.15;;;2.90;;
20084;SDS011;10202;48.474;9.138;2023-05-19T03:22:30;7.80;;;2.83;;
20084;SDS011;10202;48.474;9.138;2023-05-19T03:24:58;4.28;;;3.35;;
20084;SDS011;10202;48.474;9.138;2023-05-19T03:27:28;4.53;;;2.80;;
20084;SDS011;10202;48.474;9.138;2023-05-19T03:29:53;5.43;;;2.83;;
20084;SDS011;10202;48.474;9.138;2023-05-19T03:32:22;5.80;;;3.13;;
20084;SDS011;10202;48.474;9.138;2023-05-19T03:34:48;4.18;;;2.90;;
20084;SDS011;10202;48.474;9.138;2023-05-19T03:37:14;4.47;;;2.60;;
20084;SDS011;10202;48.474;9.138;2023-05-19T03:39:42;5.60;;;3.22;;
20084;SDS011;10202;48.474;9.138;2023-05-19T03:42:12;6.13;;;2.85;;
20084;SDS011;10202;48.474;9.138;2023-05-19T03:44:38;6.60;;;3.10;;
20084;SDS011;10202;48.474;9.138;2023-05-19T03:47:08;6.72;;;2.88;;
20084;SDS011;10202;48.474;9.138;2023-05-19T03:49:55;5.15;;;2.75;;
20084;SDS011;10202;48.474;9.138;2023-05-19T03:52:41;6.07;;;3.28;;
20084;SDS011;10202;48.474;9.138;2023-05-19T03:55:25;7.35;;;3.40;;
20084;SDS011;10202;48.474;9.138;2023-05-19T03:57:54;8.98;;;3.00;;
20084;SDS011;10202;48.474;9.138;2023-05-19T04:00:24;5.20;;;3.22;;
20084;SDS011;10202;48.474;9.138;2023-05-19T04:02:54;6.45;;;3.00;;
20084;SDS011;10202;48.474;9.138;2023-05-19T04:05:22;4.93;;;3.05;;
20084;SDS011;10202;48.474;9.138;2023-05-19T04:07:52;7.00;;;3.20;;
20084;SDS011;10202;48.474;9.138;2023-05-19T04:10:19;12.13;;;3.28;;
20084;SDS011;10202;48.474;9.138;2023-05-19T04:12:46;5.25;;;3.03;;
20084;SDS011;10202;48.474;9.138;2023-05-19T04:15:14;7.07;;;3.65;;
20084;SDS011;10202;48.474;9.138;2023-05-19T04:17:42;8.18;;;3.28;;
20084;SDS011;10202;48.474;9.138;2023-05-19T04:20:10;7.10;;;3.28;;
20084;SDS011;10202;48.474;9.138;2023-05-19T04:22:36;4.70;;;3.03;;
20084;SDS011;10202;48.474;9.138;2023-05-19T04:25:04;4.90;;;3.20;;
20084;SDS011;10202;48.474;9.138;2023-05-19T04:27:33;5.65;;;3.60;;
20084;SDS011;10202;48.474;9.138;2023-05-19T04:30:08;5.38;;;3.08;;
20084;SDS011;10202;48.474;9.138;2023-05-19T04:32:37;6.70;;;3.38;;
20084;SDS011;10202;48.474;9.138;2023-05-19T04:35:05;4.65;;;2.75;;
20084;SDS011;10202;48.474;9.138;2023-05-19T04:37:33;4.93;;;3.03;;
20084;SDS011;10202;48.474;9.138;2023-05-19T04:40:03;6.78;;;3.22;;
20084;SDS011;10202;48.474;9.138;2023-05-19T04:42:30;5.18;;;2.97;;
20084;SDS011;10202;48.474;9.138;2023-05-19T04:45:02;8.15;;;3.25;;
20084;SDS011;10202;48.474;9.138;2023-05-19T04:47:28;4.88;;;3.10;;
20084;SDS011;10202;48.474;9.138;2023-05-19T04:50:01;5.93;;;2.78;;
20084;SDS011;10202;48.474;9.138;2023-05-19T04:52:30;6.13;;;3.08;;
20084;SDS011;10202;48.474;9.138;2023-05-19T04:54:55;8.00;;;3.55;;
20084;SDS011;10202;48.474;9.138;2023-05-19T04:57:23;4.90;;;3.20;;
20084;SDS011;10202;48.474;9.138;2023-05-19T04:59:54;5.75;;;3.10;;
20084;SDS011;10202;48.474;9.138;2023-05-19T05:02:26;10.82;;;4.85;;
20084;SDS011;10202;48.474;9.138;2023-05-19T05:04:54;6.40;;;3.40;;
20084;SDS011;10202;48.474;9.138;2023-05-19T05:07:21;5.03;;;3.33;;
20084;SDS011;10202;48.474;9.138;2023-05-19T05:09:48;6.13;;;3.63;;
20084;SDS011;10202;48.474;9.138;2023-05-19T05:12:16;5.90;;;3.42;;
20084;SDS011;10202;48.474;9.138;2023-05-19T05:14:46;7.07;;;3.38;;
20084;SDS011;10202;48.474;9.138;2023-05-19T05:17:12;9.20;;;3.22;;
20084;SDS011;10202;48.474;9.138;2023-05-19T05:19:44;6.25;;;3.10;;
20084;SDS011;10202;48.474;9.138;2023-05-19T05:22:12;7.05;;;3.78;;
20084;SDS011;10202;48.474;9.138;2023-05-19T05:24:41;6.68;;;3.72;;
20084;SDS011;10202;48.474;9.138;2023-05-19T05:27:08;8.18;;;3.65;;
20084;SDS011;10202;48.474;9.138;2023-05-19T05:29:38;11.32;;;3.90;;
20084;SDS011;10202;48.474;9.138;2023-05-19T05:32:05;7.60;;;3.40;;
20084;SDS011;10202;48.474;9.138;2023-05-19T05:34:35;7.90;;;3.50;;
20084;SDS011;10202;48.474;9.138;2023-05-19T05:37:03;8.43;;;3.70;;
20084;SDS011;10202;48.474;9.138;2023-05-19T05:39:32;11.18;;;4.43;;
20084;SDS011;10202;48.474;9.138;2023-05-19T05:41:58;7.78;;;3.60;;
20084;SDS011;10202;48.474;9.138;2023-05-19T05:44:24;9.80;;;3.33;;
20084;SDS011;10202;48.474;9.138;2023-05-19T05:46:54;7.00;;;3.80;;
20084;SDS011;10202;48.474;9.138;2023-05-19T05:49:20;7.38;;;3.67;;
20084;SDS011;10202;48.474;9.138;2023-05-19T05:51:46;8.95;;;3.85;;
20084;SDS011;10202;48.474;9.138;2023-05-19T05:54:12;9.65;;;3.72;;
20084;SDS011;10202;48.474;9.138;2023-05-19T05:56:51;9.25;;;3.50;;
20084;SDS011;10202;48.474;9.138;2023-05-19T05:59:18;13.75;;;3.63;;
20084;SDS011;10202;48.474;9.138;2023-05-19T06:01:49;9.07;;;4.28;;
20084;SDS011;10202;48.474;9.138;2023-05-19T06:04:18;8.30;;;3.85;;
20084;SDS011;10202;48.474;9.138;2023-05-19T06:06:52;8.27;;;3.35;;
20084;SDS011;10202;48.474;9.138;2023-05-19T06:09:28;9.10;;;3.55;;
20084;SDS011;10202;48.474;9.138;2023-05-19T06:11:59;8.15;;;3.47;;
20084;SDS011;10202;48.474;9.138;2023-05-19T06:14:31;8.05;;;3.45;;
20084;SDS011;10202;48.474;9.138;2023-05-19T06:17:33;12.48;;;3.58;;
20084;SDS011;10202;48.474;9.138;2023-05-19T06:20:00;11.57;;;4.28;;
20084;SDS011;10202;48.474;9.138;2023-05-19T06:22:26;11.82;;;3.42;;
20084;SDS011;10202;48.474;9.138;2023-05-19T06:24:53;8.63;;;3.70;;
20084;SDS011;10202;48.474;9.138;2023-05-19T06:27:20;8.48;;;3.50;;
20084;SDS011;10202;48.474;9.138;2023-05-19T06:29:46;11.20;;;3.58;;
20084;SDS011;10202;48.474;9.138;2023-05-19T06:32:12;12.05;;;4.13;;
20084;SDS011;10202;48.474;9.138;2023-05-19T06:34:38;9.25;;;3.83;;
20084;SDS011;10202;48.474;9.138;2023-05-19T06:37:07;9.57;;;3.40;;
20084;SDS011;10202;48.474;9.138;2023-05-19T06:39:33;7.22;;;3.65;;
20084;SDS011;10202;48.474;9.138;2023-05-19T06:41:58;11.55;;;3.70;;
20084;SDS011;10202;48.474;9.138;2023-05-19T06:44:42;11.25;;;3.60;;
20084;SDS011;10202;48.474;9.138;2023-05-19T06:47:15;8.88;;;3.60;;
20084;SDS011;10202;48.474;9.138;2023-05-19T06:49:44;15.27;;;3.55;;
20084;SDS011;10202;48.474;9.138;2023-05-19T06:52:23;9.13;;;3.72;;
20084;SDS011;10202;48.474;9.138;2023-05-19T06:54:53;6.40;;;3.35;;
20084;SDS011;10202;48.474;9.138;2023-05-19T06:57:19;7.15;;;3.10;;
20084;SDS011;10202;48.474;9.138;2023-05-19T06:59:47;8.07;;;3.53;;
20084;SDS011;10202;48.474;9.138;2023-05-19T07:02:16;9.70;;;3.80;;
20084;SDS011;10202;48.474;9.138;2023-05-19T07:04:44;8.18;;;3.67;;
20084;SDS011;10202;48.474;9.138;2023-05-19T07:07:17;9.85;;;3.50;;
20084;SDS011;10202;48.474;9.138;2023-05-19T07:09:43;8.43;;;3.53;;
20084;SDS011;10202;48.474;9.138;2023-05-19T07:12:11;8.88;;;3.70;;
20084;SDS011;10202;48.474;9.138;2023-05-19T07:14:37;14.10;;;3.70;;
20084;SDS011;10202;48.474;9.138;2023-05-19T07:17:05;12.80;;;3.58;;
20084;SDS011;10202;48.474;9.138;2023-05-19T07:19:35;8.82;;;3.22;;
20084;SDS011;10202;48.474;9.138;2023-05-19T07:22:01;8.65;;;3.13;;
20084;SDS011;10202;48.474;9.138;2023-05-19T07:24:34;6.93;;;3.22;;
20084;SDS011;10202;48.474;9.138;2023-05-19T07:27:02;12.25;;;3.70;;
20084;SDS011;10202;48.474;9.138;2023-05-19T07:29:29;10.80;;;3.83;;
20084;SDS011;10202;48.474;9.138;2023-05-19T07:31:55;12.10;;;3.40;;
20084;SDS011;10202;48.474;9.138;2023-05-19T07:34:24;5.20;;;3.33;;
20084;SDS011;10202;48.474;9.138;2023-05-19T07:36:50;7.53;;;3.58;;
20084;SDS011;10202;48.474;9.138;2023-05-19T07:39:18;7.35;;;3.40;;
20084;SDS011;10202;48.474;9.138;2023-05-19T07:41:47;10.07;;;3.83;;
20084;SDS011;10202;48.474;9.138;2023-05-19T07:44:19;15.07;;;5.63;;
20084;SDS011;10202;48.474;9.138;2023-05-19T07:46:50;8.45;;;5.03;;
20084;SDS011;10202;48.474;9.138;2023-05-19T07:49:18;9.32;;;4.75;;
20084;SDS011;10202;48.474;9.138;2023-05-19T07:51:46;8.13;;;3.50;;
20084;SDS011;10202;48.474;9.138;2023-05-19T07:54:17;6.40;;;3.67;;
20084;SDS011;10202;48.474;9.138;2023-05-19T07:56:48;9.07;;;3.47;;
20084;SDS011;10202;48.474;9.138;2023-05-19T07:59:21;8.32;;;3.50;;
20084;SDS011;10202;48.474;9.138;2023-05-19T08:01:47;9.25;;;3.80;;
20084;SDS011;10202;48.474;9.138;2023-05-19T08:04:15;6.05;;;3.55;;
20084;SDS011;10202;48.474;9.138;2023-05-19T08:06:40;7.53;;;3.50;;
20084;SDS011;10202;48.474;9.138;2023-05-19T08:09:08;6.45;;;3.58;;
20084;SDS011;10202;48.474;9.138;2023-05-19T08:11:39;8.45;;;3.75;;
20084;SDS011;10202;48.474;9.138;2023-05-19T08:14:07;9.15;;;3.63;;
20084;SDS011;10202;48.474;9.138;2023-05-19T08:16:35;5.90;;;3.47;;
20084;SDS011;10202;48.474;9.138;2023-05-19T08:19:03;8.90;;;3.78;;
20084;SDS011;10202;48.474;9.138;2023-05-19T08:21:30;7.43;;;3.67;;
20084;SDS011;10202;48.474;9.138;2023-05-19T08:24:01;15.07;;;4.40;;
20084;SDS011;10202;48.474;9.138;2023-05-19T08:26:30;8.07;;;4.07;;
20084;SDS011;10202;48.474;9.138;2023-05-19T08:28:57;7.85;;;4.03;;
20084;SDS011;10202;48.474;9.138;2023-05-19T08:31:23;7.55;;;3.80;;
20084;SDS011;10202;48.474;9.138;2023-05-19T08:33:51;7.63;;;3.70;;
20084;SDS011;10202;48.474;9.138;2023-05-19T08:36:19;6.60;;;4.00;;
20084;SDS011;10202;48.474;9.138;2023-05-19T08:38:48;10.75;;;4.28;;
20084;SDS011;10202;48.474;9.138;2023-05-19T08:41:13;11.73;;;4.18;;
20084;SDS011;10202;48.474;9.138;2023-05-19T08:43:40;9.95;;;3.95;;
20084;SDS011;10202;48.474;9.138;2023-05-19T08:46:09;9.95;;;4.18;;
20084;SDS011;10202;48.474;9.138;2023-05-19T08:48:39;9.05;;;4.07;;
20084;SDS011;10202;48.474;9.138;2023-05-19T08:53:55;9.73;;;4.35;;
20084;SDS011;10202;48.474;9.138;2023-05-19T08:56:24;7.45;;;4.28;;
20084;SDS011;10202;48.474;9.138;2023-05-19T08:58:54;6.88;;;3.80;;
20084;SDS011;10202;48.474;9.138;2023-05-19T09:01:23;9.27;;;4.00;;
20084;SDS011;10202;48.474;9.138;2023-05-19T09:03:52;7.70;;;4.07;;
20084;SDS011;10202;48.474;9.138;2023-05-19T09:06:28;11.73;;;4.53;;
20084;SDS011;10202;48.474;9.138;2023-05-19T09:08:57;12.45;;;4.30;;
20084;SDS011;10202;48.474;9.138;2023-05-19T09:11:27;7.75;;;4.10;;
20084;SDS011;10202;48.474;9.138;2023-05-19T09:13:53;10.30;;;4.20;;
20084;SDS011;10202;48.474;9.138;2023-05-19T09:16:19;10.32;;;3.78;;
20084;SDS011;10202;48.474;9.138;2023-05-19T09:18:53;8.52;;;3.63;;
20084;SDS011;10202;48.474;9.138;2023-05-19T09:21:25;9.65;;;3.90;;
20084;SDS011;10202;48.474;9.138;2023-05-19T09:23:55;7.43;;;3.88;;
20084;SDS011;10202;48.474;9.138;2023-05-19T09:26:37;12.35;;;4.55;;
20084;SDS011;10202;48.474;9.138;2023-05-19T09:29:11;9.10;;;4.05;;
20084;SDS011;10202;48.474;9.138;2023-05-19T09:31:48;11.52;;;4.22;;
20084;SDS011;10202;48.474;9.138;2023-05-19T09:34:18;8.35;;;3.78;;
20084;SDS011;10202;48.474;9.138;2023-05-19T09:36:45;8.48;;;4.13;;
20084;SDS011;10202;48.474;9.138;2023-05-19T09:39:16;11.13;;;4.45;;
20084;SDS011;10202;48.474;9.138;2023-05-19T09:41:43;8.75;;;3.95;;
20084;SDS011;10202;48.474;9.138;2023-05-19T09:44:30;8.57;;;3.83;;
20084;SDS011;10202;48.474;9.138;2023-05-19T09:47:04;11.60;;;4.25;;
20084;SDS011;10202;48.474;9.138;2023-05-19T09:49:35;16.60;;;4.85;;
20084;SDS011;10202;48.474;9.138;2023-05-19T09:52:03;8.38;;;3.70;;
20084;SDS011;10202;48.474;9.138;2023-05-19T09:54:29;6.30;;;3.83;;
20084;SDS011;10202;48.474;9.138;2023-05-19T09:59:28;11.13;;;3.88;;
20084;SDS011;10202;48.474;9.138;2023-05-19T10:01:57;9.23;;;3.47;;
20084;SDS011;10202;48.474;9.138;2023-05-19T10:04:27;9.05;;;3.72;;
20084;SDS011;10202;48.474;9.138;2023-05-19T10:06:55;13.63;;;3.53;;
20084;SDS011;10202;48.474;9.138;2023-05-19T10:09:26;9.63;;;4.18;;
20084;SDS011;10202;48.474;9.138;2023-05-19T10:11:55;8.63;;;3.67;;
20084;SDS011;10202;48.474;9.138;2023-05-19T10:14:24;9.25;;;3.40;;
20084;SDS011;10202;48.474;9.138;2023-05-19T10:16:56;7.25;;;3.58;;
20084;SDS011;10202;48.474;9.138;2023-05-19T10:19:26;8.50;;;3.70;;
20084;SDS011;10202;48.474;9.138;2023-05-19T10:21:57;9.93;;;3.97;;
20084;SDS011;10202;48.474;9.138;2023-05-19T10:24:25;9.85;;;3.55;;
20084;SDS011;10202;48.474;9.138;2023-05-19T10:29:27;7.70;;;3.70;;
20084;SDS011;10202;48.474;9.138;2023-05-19T10:31:55;10.65;;;3.53;;
20084;SDS011;10202;48.474;9.138;2023-05-19T10:43:10;6.93;;;3.75;;
20084;SDS011;10202;48.474;9.138;2023-05-19T10:45:58;10.82;;;3.72;;
20084;SDS011;10202;48.474;9.138;2023-05-19T10:48:26;9.77;;;3.80;;
20084;SDS011;10202;48.474;9.138;2023-05-19T10:51:00;7.50;;;3.80;;
20084;SDS011;10202;48.474;9.138;2023-05-19T10:53:31;7.63;;;3.88;;
20084;SDS011;10202;48.474;9.138;2023-05-19T10:55:59;9.88;;;3.70;;
20084;SDS011;10202;48.474;9.138;2023-05-19T11:01:12;13.23;;;4.13;;
20084;SDS011;10202;48.474;9.138;2023-05-19T11:03:52;8.65;;;3.60;;
20084;SDS011;10202;48.474;9.138;2023-05-19T11:06:31;7.50;;;3.50;;
20084;SDS011;10202;48.474;9.138;2023-05-19T11:08:58;5.82;;;3.40;;
20084;SDS011;10202;48.474;9.138;2023-05-19T11:11:43;8.30;;;4.20;;
20084;SDS011;10202;48.474;9.138;2023-05-19T11:14:19;7.00;;;3.88;;
20084;SDS011;10202;48.474;9.138;2023-05-19T11:16:52;7.47;;;3.88;;
20084;SDS011;10202;48.474;9.138;2023-05-19T11:22:07;5.65;;;3.65;;
20084;SDS011;10202;48.474;9.138;2023-05-19T11:24:37;7.55;;;3.55;;
20084;SDS011;10202;48.474;9.138;2023-05-19T11:30:01;6.70;;;3.50;;
20084;SDS011;10202;48.474;9.138;2023-05-19T11:32:33;14.60;;;4.18;;
20084;SDS011;10202;48.474;9.138;2023-05-19T11:35:00;9.32;;;3.42;;
20084;SDS011;10202;48.474;9.138;2023-05-19T11:37:31;9.63;;;3.80;;
20084;SDS011;10202;48.474;9.138;2023-05-19T11:40:03;7.88;;;3.28;;
20084;SDS011;10202;48.474;9.138;2023-05-19T11:42:34;4.32;;;3.35;;
20084;SDS011;10202;48.474;9.138;2023-05-19T11:45:03;13.80;;;3.90;;
20084;SDS011;10202;48.474;9.138;2023-05-19T11:47:32;7.15;;;3.45;;
20084;SDS011;10202;48.474;9.138;2023-05-19T11:50:00;6.32;;;3.50;;
20084;SDS011;10202;48.474;9.138;2023-05-19T11:52:25;8.15;;;3.45;;
20084;SDS011;10202;48.474;9.138;2023-05-19T11:54:59;10.55;;;3.47;;
20084;SDS011;10202;48.474;9.138;2023-05-19T11:57:27;8.57;;;3.55;;
20084;SDS011;10202;48.474;9.138;2023-05-19T11:59:56;7.07;;;3.35;;
20084;SDS011;10202;48.474;9.138;2023-05-19T12:02:25;7.68;;;3.33;;
20084;SDS011;10202;48.474;9.138;2023-05-19T12:04:54;43.60;;;5.28;;
20084;SDS011;10202;48.474;9.138;2023-05-19T12:07:22;16.33;;;3.47;;
20084;SDS011;10202;48.474;9.138;2023-05-19T12:09:53;7.57;;;3.45;;
20084;SDS011;10202;48.474;9.138;2023-05-19T12:12:20;5.78;;;3.28;;
20084;SDS011;10202;48.474;9.138;2023-05-19T12:14:48;8.43;;;4.60;;
20084;SDS011;10202;48.474;9.138;2023-05-19T12:17:18;7.95;;;4.25;;
20084;SDS011;10202;48.474;9.138;2023-05-19T12:19:52;8.57;;;4.97;;
20084;SDS011;10202;48.474;9.138;2023-05-19T12:22:23;6.47;;;3.95;;
20084;SDS011;10202;48.474;9.138;2023-05-19T12:24:55;6.90;;;3.88;;
20084;SDS011;10202;48.474;9.138;2023-05-19T12:27:24;7.47;;;4.07;;
20084;SDS011;10202;48.474;9.138;2023-05-19T12:29:53;5.85;;;3.92;;
20084;SDS011;10202;48.474;9.138;2023-05-19T12:32:26;7.68;;;3.90;;
20084;SDS011;10202;48.474;9.138;2023-05-19T12:34:55;8.43;;;3.80;;
20084;SDS011;10202;48.474;9.138;2023-05-19T12:37:21;7.72;;;4.05;;
20084;SDS011;10202;48.474;9.138;2023-05-19T12:39:50;8.35;;;4.32;;
20084;SDS011;10202;48.474;9.138;2023-05-19T12:42:19;8.07;;;4.18;;
20084;SDS011;10202;48.474;9.138;2023-05-19T12:44:47;7.80;;;4.22;;
20084;SDS011;10202;48.474;9.138;2023-05-19T12:47:17;6.93;;;4.75;;
20084;SDS011;10202;48.474;9.138;2023-05-19T12:52:47;6.68;;;3.97;;
20084;SDS011;10202;48.474;9.138;2023-05-19T12:55:16;7.32;;;3.92;;
20084;SDS011;10202;48.474;9.138;2023-05-19T12:57:49;7.60;;;3.97;;
20084;SDS011;10202;48.474;9.138;2023-05-19T13:00:21;8.10;;;4.37;;
20084;SDS011;10202;48.474;9.138;2023-05-19T13:02:59;8.32;;;4.35;;
20084;SDS011;10202;48.474;9.138;2023-05-19T13:05:38;16.23;;;4.50;;
20084;SDS011;10202;48.474;9.138;2023-05-19T13:08:10;5.38;;;3.88;;
20084;SDS011;10202;48.474;9.138;2023-05-19T13:10:43;9.13;;;4.50;;
20084;SDS011;10202;48.474;9.138;2023-05-19T13:13:11;7.55;;;4.22;;
20084;SDS011;10202;48.474;9.138;2023-05-19T13:15:39;8.63;;;3.70;;
20084;SDS011;10202;48.474;9.138;2023-05-19T13:18:14;5.68;;;4.25;;
20084;SDS011;10202;48.474;9.138;2023-05-19T13:20:41;9.20;;;4.65;;
20084;SDS011;10202;48.474;9.138;2023-05-19T13:23:09;9.23;;;4.80;;
20084;SDS011;10202;48.474;9.138;2023-05-19T13:25:35;11.20;;;6.22;;
20084;SDS011;10202;48.474;9.138;2023-05-19T13:28:01;10.82;;;6.10;;
20084;SDS011;10202;48.474;9.138;2023-05-19T13:30:30;12.05;;;7.07;;
20084;SDS011;10202;48.474;9.138;2023-05-19T13:33:00;12.93;;;5.78;;
20084;SDS011;10202;48.474;9.138;2023-05-19T13:35:29;14.85;;;5.82;;
20084;SDS011;10202;48.474;9.138;2023-05-19T13:38:05;13.43;;;5.75;;
20084;SDS011;10202;48.474;9.138;2023-05-19T13:40:37;7.63;;;5.03;;
20084;SDS011;10202;48.474;9.138;2023-05-19T13:43:03;8.95;;;5.00;;
20084;SDS011;10202;48.474;9.138;2023-05-19T13:45:31;9.73;;;5.88;;
20084;SDS011;10202;48.474;9.138;2023-05-19T13:48:00;16.98;;;8.90;;
20084;SDS011;10202;48.474;9.138;2023-05-19T13:50:25;12.35;;;6.50;;
20084;SDS011;10202;48.474;9.138;2023-05-19T13:52:51;14.32;;;8.65;;
20084;SDS011;10202;48.474;9.138;2023-05-19T13:55:17;10.43;;;6.00;;
20084;SDS011;10202;48.474;9.138;2023-05-19T13:57:47;6.40;;;4.30;;
20084;SDS011;10202;48.474;9.138;2023-05-19T14:00:16;10.35;;;4.90;;
20084;SDS011;10202;48.474;9.138;2023-05-19T14:02:45;6.70;;;4.10;;
20084;SDS011;10202;48.474;9.138;2023-05-19T14:05:11;5.97;;;4.10;;
20084;SDS011;10202;48.474;9.138;2023-05-19T14:07:37;13.38;;;5.32;;
20084;SDS011;10202;48.474;9.138;2023-05-19T14:10:05;10.65;;;4.53;;
20084;SDS011;10202;48.474;9.138;2023-05-19T14:12:37;7.30;;;3.85;;
20084;SDS011;10202;48.474;9.138;2023-05-19T14:15:08;5.82;;;4.20;;
20084;SDS011;10202;48.474;9.138;2023-05-19T14:17:37;7.80;;;4.10;;
20084;SDS011;10202;48.474;9.138;2023-05-19T14:20:09;9.60;;;4.63;;
20084;SDS011;10202;48.474;9.138;2023-05-19T14:22:36;5.65;;;4.10;;
20084;SDS011;10202;48.474;9.138;2023-05-19T14:25:04;8.68;;;4.00;;
20084;SDS011;10202;48.474;9.138;2023-05-19T14:27:32;8.77;;;4.05;;
20084;SDS011;10202;48.474;9.138;2023-05-19T14:29:58;8.18;;;4.13;;
20084;SDS011;10202;48.474;9.138;2023-05-19T14:32:28;11.38;;;4.38;;
20084;SDS011;10202;48.474;9.138;2023-05-19T14:34:53;9.25;;;4.30;;
20084;SDS011;10202;48.474;9.138;2023-05-19T14:37:19;7.15;;;4.45;;
20084;SDS011;10202;48.474;9.138;2023-05-19T14:39:49;5.90;;;4.22;;
20084;SDS011;10202;48.474;9.138;2023-05-19T14:42:19;9.52;;;4.80;;
20084;SDS011;10202;48.474;9.138;2023-05-19T14:44:50;7.78;;;4.43;;
20084;SDS011;10202;48.474;9.138;2023-05-19T14:47:15;11.73;;;4.80;;
20084;SDS011;10202;48.474;9.138;2023-05-19T14:49:46;11.35;;;4.82;;
20084;SDS011;10202;48.474;9.138;2023-05-19T14:52:19;7.28;;;4.10;;
20084;SDS011;10202;48.474;9.138;2023-05-19T14:54:47;9.52;;;4.40;;
20084;SDS011;10202;48.474;9.138;2023-05-19T14:57:17;8.98;;;4.43;;
20084;SDS011;10202;48.474;9.138;2023-05-19T14:59:43;16.20;;;5.25;;
20084;SDS011;10202;48.474;9.138;2023-05-19T15:02:08;9.15;;;4.72;;
20084;SDS011;10202;48.474;9.138;2023-05-19T15:04:35;8.00;;;5.00;;
20084;SDS011;10202;48.474;9.138;2023-05-19T15:07:01;10.45;;;4.90;;
20084;SDS011;10202;48.474;9.138;2023-05-19T15:09:27;7.95;;;4.38;;
20084;SDS011;10202;48.474;9.138;2023-05-19T15:11:52;12.48;;;4.97;;
20084;SDS011;10202;48.474;9.138;2023-05-19T15:14:25;7.07;;;4.40;;
20084;SDS011;10202;48.474;9.138;2023-05-19T15:16:53;10.77;;;5.00;;
20084;SDS011;10202;48.474;9.138;2023-05-19T15:19:21;23.00;;;4.97;;
20084;SDS011;10202;48.474;9.138;2023-05-19T15:21:52;7.18;;;4.50;;
20084;SDS011;10202;48.474;9.138;2023-05-19T15:24:18;9.80;;;4.75;;
20084;SDS011;10202;48.474;9.138;2023-05-19T15:26:44;11.20;;;4.68;;
20084;SDS011;10202;48.474;9.138;2023-05-19T15:29:14;13.43;;;4.38;;
20084;SDS011;10202;48.474;9.138;2023-05-19T15:31:40;7.93;;;4.40;;
20084;SDS011;10202;48.474;9.138;2023-05-19T15:34:05;10.68;;;5.80;;
20084;SDS011;10202;48.474;9.138;2023-05-19T15:36:33;14.75;;;6.63;;
20084;SDS011;10202;48.474;9.138;2023-05-19T15:39:01;12.48;;;6.78;;